createdAt,value
2022-09-20T00:00:43.693Z,94740.25
2022-09-20T00:02:45.281Z,94731.72
2022-09-20T00:04:49.610Z,94735.50
2022-09-20T00:06:51.435Z,94734.69
2022-09-20T00:08:53.483Z,94749.44
2022-09-20T00:11:06.317Z,94734.34
2022-09-20T00:13:11.273Z,94735.84
2022-09-20T00:15:12.812Z,94740.28
2022-09-20T00:17:14.716Z,94742.06
2022-09-20T00:19:21.163Z,94738.94
2022-09-20T00:21:27.866Z,94733.38
2022-09-20T00:23:30.335Z,94734.84
2022-09-20T00:25:32.077Z,94727.16
2022-09-20T00:27:33.710Z,94732.53
2022-09-20T00:29:35.354Z,94730.56
2022-09-20T00:31:39.182Z,94733.38
2022-09-20T00:33:59.128Z,94730.75
2022-09-20T00:36:00.855Z,94730.94
2022-09-20T00:38:02.472Z,94730.41
2022-09-20T00:40:05.758Z,94732.22
2022-09-20T00:42:09.832Z,94731.88
2022-09-20T00:44:48.129Z,94735.97
2022-09-20T00:46:49.830Z,94738.94
2022-09-20T00:48:53.391Z,94731.75
2022-09-20T00:51:00.124Z,94743.19
2022-09-20T00:53:26.508Z,94742.56
2022-09-20T00:55:29.174Z,94735.13
2022-09-20T00:57:35.309Z,94744.97
2022-09-20T00:59:40.567Z,94741.06
2022-09-20T01:01:44.192Z,94751.34
2022-09-20T01:03:46.505Z,94739.91
2022-09-20T01:05:48.169Z,94745.47
2022-09-20T01:07:50.617Z,94748.06
2022-09-20T01:09:52.450Z,94731.84
2022-09-20T01:11:55.920Z,94735.16
2022-09-20T01:13:57.881Z,94736.94
2022-09-20T01:16:01.381Z,94740.22
2022-09-20T01:18:06.571Z,94738.59
2022-09-20T01:20:09.972Z,94734.97
2022-09-20T01:22:21.770Z,94740.53
2022-09-20T01:24:28.482Z,94744.13
2022-09-20T01:26:47.392Z,94738.41
2022-09-20T01:28:50.759Z,94727.78
2022-09-20T01:31:46.873Z,94734.00
2022-09-20T01:33:59.167Z,94729.75
2022-09-20T01:36:04.101Z,94729.09
2022-09-20T01:38:34.146Z,94735.00
2022-09-20T01:41:19.490Z,94730.91
2022-09-20T01:43:39.794Z,94732.38
2022-09-20T01:45:46.887Z,94735.97
2022-09-20T01:47:57.689Z,94728.13
2022-09-20T01:50:28.400Z,94743.50
2022-09-20T01:52:36.396Z,94752.84
2022-09-20T01:54:49.513Z,94746.75
2022-09-20T01:57:09.230Z,94744.28
2022-09-20T01:59:24.843Z,94742.78
2022-09-20T02:01:32.657Z,94739.19
2022-09-20T02:03:37.332Z,94733.66
2022-09-20T02:05:48.097Z,94728.06
2022-09-20T02:08:08.344Z,94709.38
2022-09-20T02:10:20.262Z,94718.53
2022-09-20T02:12:43.462Z,94710.53
2022-09-20T02:15:03.801Z,94709.91
2022-09-20T02:17:13.959Z,94709.53
2022-09-20T02:19:28.131Z,94715.25
2022-09-20T02:21:48.223Z,94720.03
2022-09-20T02:24:15.052Z,94714.09
2022-09-20T02:26:33.870Z,94713.88
2022-09-20T02:29:01.391Z,94715.16
2022-09-20T02:31:17.019Z,94718.38
2022-09-20T02:33:36.674Z,94717.91
2022-09-20T02:36:07.965Z,94717.75
2022-09-20T02:38:18.669Z,94722.16
2022-09-20T02:40:41.547Z,94719.38
2022-09-20T02:43:04.752Z,94724.91
2022-09-20T02:45:06.272Z,94730.44
2022-09-20T02:47:37.651Z,94737.25
2022-09-20T02:50:14.601Z,94737.31
2022-09-20T02:52:40.452Z,94740.56
2022-09-20T02:55:01.655Z,94739.41
2022-09-20T02:57:06.359Z,94728.28
2022-09-20T02:59:37.668Z,94728.50
2022-09-20T03:01:49.186Z,94730.13
2022-09-20T03:03:56.868Z,94734.81
2022-09-20T03:06:06.420Z,94737.78
2022-09-20T03:08:43.455Z,94733.75
2022-09-20T03:11:22.102Z,94735.13
2022-09-20T03:13:52.964Z,94726.31
2022-09-20T03:16:14.941Z,94735.94
2022-09-20T03:18:20.064Z,94731.16
2022-09-20T03:20:36.034Z,94740.66
2022-09-20T03:22:37.620Z,94739.38
2022-09-20T03:24:54.415Z,94735.84
2022-09-20T03:26:58.867Z,94747.72
2022-09-20T03:29:00.499Z,94746.59
2022-09-20T03:31:11.984Z,94750.28
2022-09-20T03:33:44.214Z,94747.69
2022-09-20T03:36:11.799Z,94748.81
2022-09-20T03:38:29.830Z,94744.16
2022-09-20T03:40:59.348Z,94749.59
2022-09-20T03:43:11.405Z,94750.94
2022-09-20T03:45:50.767Z,94753.78
2022-09-20T03:48:09.364Z,94753.78
2022-09-20T03:50:35.934Z,94743.84
2022-09-20T03:53:00.203Z,94746.16
2022-09-20T03:55:16.387Z,94744.34
2022-09-20T03:57:36.665Z,94741.75
2022-09-20T03:59:51.584Z,94748.97
2022-09-20T04:01:56.741Z,94750.25
2022-09-20T04:04:32.595Z,94746.19
2022-09-20T04:06:43.160Z,94752.56
2022-09-20T04:09:09.234Z,94762.09
2022-09-20T04:11:30.093Z,94763.44
2022-09-20T04:13:45.537Z,94770.00
2022-09-20T04:16:19.343Z,94766.50
2022-09-20T04:18:20.899Z,94777.50
2022-09-20T04:20:40.447Z,94769.03
2022-09-20T04:22:43.422Z,94772.31
2022-09-20T04:24:53.175Z,94773.03
2022-09-20T04:27:25.940Z,94778.75
2022-09-20T04:29:34.193Z,94785.03
2022-09-20T04:31:41.462Z,94783.22
2022-09-20T04:33:45.658Z,94780.59
2022-09-20T04:36:31.673Z,94787.31
2022-09-20T04:38:35.701Z,94788.41
2022-09-20T04:40:47.518Z,94791.75
2022-09-20T04:43:07.687Z,94789.97
2022-09-20T04:45:13.567Z,94798.56
2022-09-20T04:47:36.886Z,94794.47
2022-09-20T04:50:11.593Z,94792.03
2022-09-20T04:52:49.939Z,94790.38
2022-09-20T04:55:12.889Z,94795.66
2022-09-20T04:57:39.888Z,94793.41
2022-09-20T05:00:07.389Z,94792.28
2022-09-20T05:02:21.256Z,94794.59
2022-09-20T05:04:28.560Z,94790.66
2022-09-20T05:06:48.513Z,94790.34
2022-09-20T05:09:06.881Z,94792.63
2022-09-20T05:11:30.650Z,94796.38
2022-09-20T05:14:12.837Z,94798.38
2022-09-20T05:16:44.157Z,94806.94
2022-09-20T05:19:13.653Z,94804.34
2022-09-20T05:21:38.132Z,94811.56
2022-09-20T05:24:08.370Z,94805.66
2022-09-20T05:26:22.787Z,94803.03
2022-09-20T05:28:24.387Z,94807.66
2022-09-20T05:30:35.315Z,94804.16
2022-09-20T05:32:39.563Z,94805.81
2022-09-20T05:35:00.292Z,94809.13
2022-09-20T05:37:28.998Z,94815.34
2022-09-20T05:39:45.973Z,94820.94
2022-09-20T05:42:01.012Z,94812.44
2022-09-20T05:44:31.225Z,94810.50
2022-09-20T05:46:45.513Z,94810.34
2022-09-20T05:48:55.321Z,94808.78
2022-09-20T05:51:09.333Z,94802.72
2022-09-20T05:53:22.660Z,94806.13
2022-09-20T05:55:54.813Z,94800.75
2022-09-20T05:58:24.968Z,94801.91
2022-09-20T06:00:31.055Z,94801.28
2022-09-20T06:02:41.791Z,94802.94
2022-09-20T06:04:52.863Z,94807.19
2022-09-20T06:07:03.869Z,94804.88
2022-09-20T06:09:17.040Z,94803.25
2022-09-20T06:11:30.738Z,94804.06
2022-09-20T06:14:10.241Z,94813.09
2022-09-20T06:16:25.457Z,94809.00
2022-09-20T06:18:31.960Z,94810.47
2022-09-20T06:20:39.481Z,94807.50
2022-09-20T06:22:52.569Z,94807.84
2022-09-20T06:25:09.275Z,94805.56
2022-09-20T06:27:19.318Z,94807.22
2022-09-20T06:29:35.546Z,94813.94
2022-09-20T06:31:38.165Z,94819.00
2022-09-20T06:33:55.691Z,94810.78
2022-09-20T06:36:32.707Z,94813.03
2022-09-20T06:38:58.739Z,94807.50
2022-09-20T06:41:18.767Z,94809.16
2022-09-20T06:43:20.426Z,94814.06
2022-09-20T06:45:22.036Z,94810.81
2022-09-20T06:47:23.652Z,94816.59
2022-09-20T06:49:27.376Z,94805.06
2022-09-20T06:51:34.318Z,94812.13
2022-09-20T06:53:40.323Z,94815.44
2022-09-20T06:55:43.283Z,94806.25
2022-09-20T06:57:45.901Z,94809.97
2022-09-20T06:59:47.483Z,94812.78
2022-09-20T07:01:49.529Z,94815.88
2022-09-20T07:03:51.279Z,94830.19
2022-09-20T07:05:53.029Z,94813.56
2022-09-20T07:07:58.754Z,94816.50
2022-09-20T07:10:00.322Z,94813.66
2022-09-20T07:12:02.073Z,94827.28
2022-09-20T07:14:03.829Z,94821.94
2022-09-20T07:16:09.336Z,94815.50
2022-09-20T07:18:10.988Z,94813.06
2022-09-20T07:20:15.067Z,94819.75
2022-09-20T07:22:18.581Z,94818.75
2022-09-20T07:24:20.194Z,94818.41
2022-09-20T07:26:26.814Z,94819.22
2022-09-20T07:28:29.250Z,94832.38
2022-09-20T07:30:30.987Z,94818.84
2022-09-20T07:32:33.105Z,94821.06
2022-09-20T07:34:34.738Z,94827.44
2022-09-20T07:36:37.109Z,94814.06
2022-09-20T07:38:39.975Z,94817.56
2022-09-20T07:40:42.007Z,94824.56
2022-09-20T07:42:46.021Z,94817.31
2022-09-20T07:44:47.776Z,94816.78
2022-09-20T07:46:52.770Z,94812.84
2022-09-20T07:48:54.546Z,94815.09
2022-09-20T07:50:59.091Z,94807.97
2022-09-20T07:53:01.044Z,94797.53
2022-09-20T07:55:02.760Z,94811.66
2022-09-20T07:57:05.740Z,94807.69
2022-09-20T07:59:07.434Z,94803.50
2022-09-20T08:01:12.613Z,94805.00
2022-09-20T08:03:14.356Z,94805.88
2022-09-20T08:05:16.235Z,94802.09
2022-09-20T08:07:18.844Z,94793.44
2022-09-20T08:09:20.492Z,94800.75
2022-09-20T08:11:27.748Z,94804.69
2022-09-20T08:15:51.741Z,94798.38
2022-09-20T08:17:53.339Z,94794.72
2022-09-20T08:19:55.290Z,94805.31
2022-09-20T08:21:57.065Z,94806.63
2022-09-20T08:23:59.507Z,94811.56
2022-09-20T08:26:02.496Z,94807.41
2022-09-20T08:28:04.117Z,94811.09
2022-09-20T08:30:06.465Z,94807.34
2022-09-20T08:32:08.389Z,94809.69
2022-09-20T08:34:12.417Z,94802.72
2022-09-20T08:36:16.148Z,94796.41
2022-09-20T08:40:39.568Z,94791.47
2022-09-20T08:42:44.787Z,94794.31
2022-09-20T08:45:00.698Z,94792.56
2022-09-20T08:47:21.857Z,94797.47
2022-09-20T08:49:26.702Z,94788.16
2022-09-20T08:51:32.381Z,94794.34
2022-09-20T08:53:34.252Z,94790.00
2022-09-20T08:55:39.569Z,94778.56
2022-09-20T08:57:41.209Z,94780.63
2022-09-20T08:59:43.254Z,94781.81
2022-09-20T09:01:45.644Z,94778.25
2022-09-20T09:03:47.691Z,94780.72
2022-09-20T09:05:53.940Z,94772.34
2022-09-20T09:07:55.661Z,94771.50
2022-09-20T09:09:57.263Z,94775.22
2022-09-20T09:11:58.921Z,94760.75
2022-09-20T09:14:30.027Z,94768.84
2022-09-20T09:16:35.381Z,94760.69
2022-09-20T09:18:40.696Z,94763.47
2022-09-20T09:20:46.839Z,94759.91
2022-09-20T09:23:09.107Z,94774.59
2022-09-20T09:25:38.342Z,94760.47
2022-09-20T09:27:55.245Z,94749.66
2022-09-20T09:29:56.891Z,94745.66
2022-09-20T09:32:19.223Z,94743.03
2022-09-20T09:34:35.317Z,94749.66
2022-09-20T09:36:43.989Z,94748.47
2022-09-20T09:38:46.419Z,94742.16
2022-09-20T09:41:02.366Z,94727.38
2022-09-20T09:43:04.413Z,94734.09
2022-09-20T09:45:13.944Z,94738.78
2022-09-20T09:47:37.564Z,94730.28
2022-09-20T09:50:00.149Z,94737.28
2022-09-20T09:52:15.780Z,94734.41
2022-09-20T09:54:19.917Z,94739.53
2022-09-20T09:56:43.268Z,94741.28
2022-09-20T09:58:54.923Z,94733.00
2022-09-20T10:00:59.894Z,94726.22
2022-09-20T10:03:20.017Z,94727.91
2022-09-20T10:05:27.471Z,94726.03
2022-09-20T10:08:03.231Z,94724.53
2022-09-20T10:10:16.772Z,94712.56
2022-09-20T10:12:31.048Z,94722.47
2022-09-20T10:14:44.538Z,94729.00
2022-09-20T10:17:05.041Z,94734.66
2022-09-20T10:19:32.122Z,94718.59
2022-09-20T10:21:43.852Z,94723.50
2022-09-20T10:24:05.170Z,94716.38
2022-09-20T10:26:27.106Z,94725.84
2022-09-20T10:28:48.575Z,94719.84
2022-09-20T10:31:11.732Z,94723.56
2022-09-20T10:33:22.994Z,94720.50
2022-09-20T10:35:29.159Z,94709.69
2022-09-20T10:37:33.765Z,94718.31
2022-09-20T10:39:37.572Z,94717.22
2022-09-20T10:42:14.983Z,94720.13
2022-09-20T10:44:19.340Z,94721.25
2022-09-20T10:46:54.799Z,94720.22
2022-09-20T10:49:24.094Z,94713.69
2022-09-20T10:51:39.134Z,94725.63
2022-09-20T10:54:02.585Z,94734.19
2022-09-20T10:56:35.260Z,94728.91
2022-09-20T10:58:54.285Z,94719.19
2022-09-20T11:01:37.270Z,94715.56
2022-09-20T11:03:54.008Z,94711.13
2022-09-20T11:06:01.323Z,94707.16
2022-09-20T11:08:19.131Z,94704.97
2022-09-20T11:10:45.108Z,94702.34
2022-09-20T11:12:52.024Z,94705.63
2022-09-20T11:15:21.821Z,94702.03
2022-09-20T11:17:31.945Z,94696.03
2022-09-20T11:20:20.750Z,94717.34
2022-09-20T11:22:44.079Z,94695.84
2022-09-20T11:24:57.978Z,94700.13
2022-09-20T11:27:06.916Z,94687.88
2022-09-20T11:29:14.604Z,94689.03
2022-09-20T11:31:24.859Z,94697.03
2022-09-20T11:33:36.002Z,94686.09
2022-09-20T11:35:44.376Z,94691.53
2022-09-20T11:37:52.267Z,94698.13
2022-09-20T11:39:55.031Z,94694.34
2022-09-20T11:41:59.963Z,94690.66
2022-09-20T11:44:13.590Z,94682.28
2022-09-20T11:46:23.413Z,94683.16
2022-09-20T11:48:31.971Z,94684.47
2022-09-20T11:50:46.459Z,94688.69
2022-09-20T11:53:21.102Z,94677.50
2022-09-20T11:55:37.821Z,94664.31
2022-09-20T11:57:39.783Z,94675.53
2022-09-20T11:59:43.114Z,94668.69
2022-09-20T12:01:45.924Z,94681.78
2022-09-20T12:04:00.121Z,94676.38
2022-09-20T12:06:27.455Z,94670.84
2022-09-20T12:08:40.937Z,94665.59
2022-09-20T12:10:42.862Z,94672.97
2022-09-20T12:12:47.074Z,94672.31
2022-09-20T12:14:56.553Z,94671.91
2022-09-20T12:16:58.335Z,94667.53
2022-09-20T12:18:59.892Z,94661.09
2022-09-20T12:21:03.106Z,94665.44
2022-09-20T12:23:38.827Z,94671.91
2022-09-20T12:25:40.461Z,94660.72
2022-09-20T12:27:42.215Z,94657.75
2022-09-20T12:29:47.639Z,94651.94
2022-09-20T12:31:54.799Z,94656.38
2022-09-20T12:34:11.968Z,94660.84
2022-09-20T12:36:16.882Z,94658.44
2022-09-20T12:38:21.449Z,94666.78
2022-09-20T12:40:26.289Z,94655.84
2022-09-20T12:42:31.412Z,94675.31
2022-09-20T12:44:35.373Z,94678.28
2022-09-20T12:46:41.606Z,94655.31
2022-09-20T12:48:43.202Z,94674.50
2022-09-20T12:51:30.903Z,94660.78
2022-09-20T12:53:32.580Z,94657.91
2022-09-20T12:55:40.907Z,94676.44
2022-09-20T12:57:42.972Z,94659.91
2022-09-20T12:59:44.950Z,94656.84
2022-09-20T13:01:46.985Z,94647.28
2022-09-20T13:03:50.137Z,94645.66
2022-09-20T13:06:15.690Z,94650.16
2022-09-20T13:08:23.984Z,94652.47
2022-09-20T13:10:29.304Z,94654.78
2022-09-20T13:12:32.190Z,94653.16
2022-09-20T13:14:34.914Z,94638.91
2022-09-20T13:16:40.495Z,94639.28
2022-09-20T13:18:42.343Z,94650.59
2022-09-20T13:20:44.403Z,94647.25
2022-09-20T13:22:46.158Z,94649.16
2022-09-20T13:24:50.255Z,94672.53
2022-09-20T13:26:53.917Z,94654.31
2022-09-20T13:28:59.215Z,94647.97
2022-09-20T13:31:21.658Z,94643.50
2022-09-20T13:33:25.159Z,94652.59
2022-09-20T13:35:32.437Z,94640.03
2022-09-20T13:37:34.916Z,94640.44
2022-09-20T13:39:37.334Z,94639.47
2022-09-20T13:41:39.434Z,94640.66
2022-09-20T13:43:43.578Z,94645.06
2022-09-20T13:45:46.871Z,94639.97
2022-09-20T13:47:51.518Z,94650.50
2022-09-20T13:49:53.622Z,94650.03
2022-09-20T13:51:55.403Z,94636.28
2022-09-20T13:54:18.322Z,94634.38
2022-09-20T13:56:23.607Z,94642.19
2022-09-20T13:58:31.524Z,94633.53
2022-09-20T14:00:34.856Z,94650.00
2022-09-20T14:02:37.097Z,94638.13
2022-09-20T14:04:38.913Z,94646.53
2022-09-20T14:06:40.748Z,94636.03
2022-09-20T14:08:45.192Z,94641.31
2022-09-20T14:10:47.121Z,94636.06
2022-09-20T14:12:49.266Z,94644.69
2022-09-20T14:14:51.344Z,94641.22
2022-09-20T14:16:55.000Z,94631.03
2022-09-20T14:18:58.576Z,94631.56
2022-09-20T14:21:00.679Z,94640.53
2022-09-20T14:23:02.343Z,94633.41
2022-09-20T14:25:21.195Z,94635.47
2022-09-20T14:27:23.165Z,94639.50
2022-09-20T14:29:43.780Z,94636.16
2022-09-20T14:31:47.239Z,94630.31
2022-09-20T14:33:55.111Z,94644.38
2022-09-20T14:35:58.158Z,94637.91
2022-09-20T14:38:02.304Z,94628.84
2022-09-20T14:40:19.693Z,94630.97
2022-09-20T14:42:27.152Z,94639.28
2022-09-20T14:44:32.485Z,94644.13
2022-09-20T14:46:38.821Z,94646.44
2022-09-20T14:48:41.450Z,94650.97
2022-09-20T14:50:45.786Z,94647.34
2022-09-20T14:52:47.375Z,94651.69
2022-09-20T14:54:59.797Z,94644.25
2022-09-20T14:57:01.667Z,94645.59
2022-09-20T14:59:13.868Z,94648.31
2022-09-20T15:01:26.031Z,94650.16
2022-09-20T15:03:31.083Z,94655.09
2022-09-20T15:05:33.904Z,94652.22
2022-09-20T15:07:37.243Z,94653.78
2022-09-20T15:09:39.144Z,94647.84
2022-09-20T15:11:41.088Z,94645.88
2022-09-20T15:13:43.141Z,94645.06
2022-09-20T15:15:48.554Z,94649.22
2022-09-20T15:17:50.467Z,94646.44
2022-09-20T15:19:52.269Z,94641.47
2022-09-20T15:21:54.196Z,94639.00
2022-09-20T15:23:55.863Z,94644.47
2022-09-20T15:25:57.515Z,94647.00
2022-09-20T15:27:59.731Z,94646.88
2022-09-20T15:30:01.280Z,94638.06
2022-09-20T15:32:04.514Z,94656.00
2022-09-20T15:34:07.392Z,94645.81
2022-09-20T15:36:10.322Z,94653.16
2022-09-20T15:38:12.890Z,94647.78
2022-09-20T15:40:15.305Z,94647.38
2022-09-20T15:42:17.019Z,94649.44
2022-09-20T15:44:20.814Z,94648.06
2022-09-20T15:46:24.569Z,94652.38
2022-09-20T15:48:28.350Z,94653.59
2022-09-20T15:50:30.255Z,94658.69
2022-09-20T15:52:34.496Z,94658.03
2022-09-20T15:54:36.306Z,94659.88
2022-09-20T15:56:40.691Z,94660.69
2022-09-20T15:58:48.689Z,94662.34
2022-09-20T16:00:50.326Z,94666.75
2022-09-20T16:02:51.983Z,94671.84
2022-09-20T16:04:57.824Z,94664.72
2022-09-20T16:06:59.401Z,94662.03
2022-09-20T16:09:00.981Z,94667.50
2022-09-20T16:11:03.360Z,94660.59
2022-09-20T16:13:04.998Z,94664.69
2022-09-20T16:15:07.323Z,94676.38
2022-09-20T16:17:08.897Z,94670.53
2022-09-20T16:19:25.156Z,94664.31
2022-09-20T16:21:26.849Z,94669.28
2022-09-20T16:23:28.494Z,94677.88
2022-09-20T16:25:30.132Z,94673.03
2022-09-20T16:27:34.280Z,94675.63
2022-09-20T16:29:36.325Z,94672.25
2022-09-20T16:31:43.040Z,94677.53
2022-09-20T16:33:44.738Z,94672.16
2022-09-20T16:35:46.314Z,94677.06
2022-09-20T16:37:48.284Z,94684.81
2022-09-20T16:39:49.877Z,94680.63
2022-09-20T16:41:52.951Z,94676.38
2022-09-20T16:43:54.924Z,94681.19
2022-09-20T16:46:00.662Z,94679.94
2022-09-20T16:48:08.291Z,94680.50
2022-09-20T16:50:11.988Z,94685.13
2022-09-20T16:52:13.813Z,94690.97
2022-09-20T16:54:16.747Z,94697.00
2022-09-20T16:56:21.667Z,94691.53
2022-09-20T16:58:30.501Z,94694.53
2022-09-20T17:00:33.748Z,94697.38
2022-09-20T17:02:36.399Z,94700.34
2022-09-20T17:04:38.042Z,94707.22
2022-09-20T17:06:40.277Z,94700.03
2022-09-20T17:08:43.008Z,94700.84
2022-09-20T17:10:45.341Z,94701.38
2022-09-20T17:12:47.950Z,94703.56
2022-09-20T17:14:49.808Z,94702.91
2022-09-20T17:16:51.510Z,94697.84
2022-09-20T17:19:07.356Z,94701.19
2022-09-20T17:21:18.537Z,94703.19
2022-09-20T17:23:20.836Z,94707.09
2022-09-20T17:25:22.584Z,94715.66
2022-09-20T17:27:24.518Z,94711.75
2022-09-20T17:29:26.182Z,94711.38
2022-09-20T17:31:34.184Z,94709.38
2022-09-20T17:33:36.705Z,94716.63
2022-09-20T17:35:38.489Z,94714.38
2022-09-20T17:37:41.064Z,94710.91
2022-09-20T17:39:42.636Z,94718.47
2022-09-20T17:41:47.171Z,94723.25
2022-09-20T17:43:53.025Z,94717.00
2022-09-20T17:45:55.821Z,94718.47
2022-09-20T17:47:58.688Z,94723.09
2022-09-20T17:50:01.358Z,94716.00
2022-09-20T17:52:04.524Z,94721.81
2022-09-20T17:54:08.076Z,94720.72
2022-09-20T17:56:11.871Z,94724.25
2022-09-20T17:58:13.602Z,94722.34
2022-09-20T18:00:16.584Z,94726.06
2022-09-20T18:02:18.524Z,94720.78
2022-09-20T18:04:21.438Z,94724.78
2022-09-20T18:06:28.999Z,94726.19
2022-09-20T18:08:30.730Z,94725.56
2022-09-20T18:10:32.914Z,94725.28
2022-09-20T18:12:34.995Z,94726.91
2022-09-20T18:14:37.138Z,94731.53
2022-09-20T18:16:39.837Z,94728.91
2022-09-20T18:18:43.932Z,94731.91
2022-09-20T18:20:46.483Z,94731.09
2022-09-20T18:22:49.043Z,94734.16
2022-09-20T18:24:51.016Z,94743.88
2022-09-20T18:26:52.785Z,94740.28
2022-09-20T18:29:02.476Z,94736.53
2022-09-20T18:31:05.535Z,94746.03
2022-09-20T18:33:08.459Z,94737.34
2022-09-20T18:35:10.699Z,94733.72
2022-09-20T18:37:14.838Z,94740.78
2022-09-20T18:39:16.850Z,94739.16
2022-09-20T18:41:18.604Z,94740.97
2022-09-20T18:43:20.999Z,94736.69
2022-09-20T18:45:23.594Z,94733.25
2022-09-20T18:47:25.915Z,94736.03
2022-09-20T18:49:29.647Z,94738.88
2022-09-20T18:51:38.576Z,94739.84
2022-09-20T18:53:41.173Z,94743.88
2022-09-20T18:55:44.131Z,94738.63
2022-09-20T18:57:46.488Z,94731.91
2022-09-20T18:59:54.442Z,94733.84
2022-09-20T19:02:17.805Z,94739.28
2022-09-20T19:04:47.730Z,94734.66
2022-09-20T19:07:04.877Z,94732.00
2022-09-20T19:09:15.195Z,94733.19
2022-09-20T19:11:32.004Z,94735.25
2022-09-20T19:14:15.135Z,94732.59
2022-09-20T19:16:21.173Z,94739.69
2022-09-20T19:19:02.005Z,94748.59
2022-09-20T19:21:41.481Z,94746.00
2022-09-20T19:24:03.506Z,94745.47
2022-09-20T19:26:19.008Z,94746.94
2022-09-20T19:28:21.141Z,94743.66
2022-09-20T19:30:23.635Z,94745.66
2022-09-20T19:32:27.422Z,94746.16
2022-09-20T19:34:30.258Z,94752.78
2022-09-20T19:36:39.856Z,94758.25
2022-09-20T19:39:18.676Z,94747.59
2022-09-20T19:41:41.899Z,94750.88
2022-09-20T19:43:47.340Z,94749.63
2022-09-20T19:45:56.759Z,94748.31
2022-09-20T19:48:16.533Z,94755.53
2022-09-20T19:50:44.524Z,94753.41
2022-09-20T19:52:46.395Z,94760.47
2022-09-20T19:54:51.860Z,94763.22
2022-09-20T19:56:55.734Z,94767.97
2022-09-20T19:58:57.757Z,94771.44
2022-09-20T20:00:59.617Z,94773.38
2022-09-20T20:03:01.563Z,94766.78
2022-09-20T20:05:04.185Z,94772.97
2022-09-20T20:07:22.366Z,94777.56
2022-09-20T20:09:45.305Z,94776.22
2022-09-20T20:12:05.887Z,94770.09
2022-09-20T20:14:12.982Z,94774.38
2022-09-20T20:16:16.244Z,94772.88
2022-09-20T20:18:32.446Z,94771.38
2022-09-20T20:20:45.846Z,94778.75
2022-09-20T20:23:22.274Z,94777.56
2022-09-20T20:25:42.165Z,94775.94
2022-09-20T20:27:43.731Z,94784.31
2022-09-20T20:29:45.506Z,94783.69
2022-09-20T20:31:47.206Z,94780.41
2022-09-20T20:33:49.028Z,94786.47
2022-09-20T20:35:55.761Z,94784.81
2022-09-20T20:38:36.940Z,94788.81
2022-09-20T20:40:39.206Z,94784.88
2022-09-20T20:42:42.364Z,94786.34
2022-09-20T20:44:43.940Z,94784.88
2022-09-20T20:46:47.585Z,94788.63
2022-09-20T20:48:49.574Z,94783.56
2022-09-20T20:51:04.554Z,94781.75
2022-09-20T20:53:06.688Z,94777.97
2022-09-20T20:55:08.687Z,94778.13
2022-09-20T20:57:10.257Z,94775.69
2022-09-20T20:59:11.930Z,94778.47
2022-09-20T21:01:13.650Z,94787.19
2022-09-20T21:03:15.264Z,94778.88
2022-09-20T21:05:16.932Z,94787.44
2022-09-20T21:07:18.577Z,94784.00
2022-09-20T21:09:20.412Z,94786.13
2022-09-20T21:11:24.464Z,94785.16
2022-09-20T21:13:26.097Z,94786.31
2022-09-20T21:15:28.040Z,94783.84
2022-09-20T21:17:33.907Z,94788.94
2022-09-20T21:19:37.509Z,94785.19
2022-09-20T21:21:40.183Z,94787.50
2022-09-20T21:23:41.884Z,94786.19
2022-09-20T21:25:43.723Z,94786.84
2022-09-20T21:27:45.316Z,94790.78
2022-09-20T21:29:46.957Z,94786.19
2022-09-20T21:31:48.797Z,94784.72
2022-09-20T21:33:50.443Z,94793.06
2022-09-20T21:35:52.367Z,94783.41
2022-09-20T21:37:53.980Z,94789.16
2022-09-20T21:39:55.548Z,94794.06
2022-09-20T21:41:57.515Z,94794.25
2022-09-20T21:44:00.642Z,94791.13
2022-09-20T21:46:02.545Z,94798.34
2022-09-20T21:48:05.399Z,94781.94
2022-09-20T21:50:07.616Z,94783.91
2022-09-20T21:52:10.970Z,94787.03
2022-09-20T21:54:12.611Z,94786.22
2022-09-20T21:56:17.584Z,94790.13
2022-09-20T21:58:19.216Z,94783.88
2022-09-20T22:00:20.892Z,94792.09
2022-09-20T22:02:23.385Z,94786.00
2022-09-20T22:04:25.547Z,94782.41
2022-09-20T22:06:32.487Z,94782.59
2022-09-20T22:08:34.312Z,94776.00
2022-09-20T22:10:37.025Z,94780.44
2022-09-20T22:12:38.831Z,94774.22
2022-09-20T22:14:40.506Z,94776.84
2022-09-20T22:16:43.727Z,94772.88
2022-09-20T22:18:46.979Z,94776.34
2022-09-20T22:20:48.702Z,94767.81
2022-09-20T22:22:50.385Z,94771.75
2022-09-20T22:24:52.030Z,94773.38
2022-09-20T22:26:54.031Z,94777.66
2022-09-20T22:28:56.168Z,94775.53
2022-09-20T22:31:03.374Z,94780.28
2022-09-20T22:33:05.251Z,94776.03
2022-09-20T22:35:07.126Z,94776.69
2022-09-20T22:37:08.771Z,94779.97
2022-09-20T22:39:11.365Z,94773.56
2022-09-20T22:41:15.020Z,94777.81
2022-09-20T22:43:16.672Z,94776.00
2022-09-20T22:45:18.230Z,94776.66
2022-09-20T22:47:19.840Z,94778.00
2022-09-20T22:49:21.413Z,94776.34
2022-09-20T22:51:25.403Z,94780.78
2022-09-20T22:53:28.317Z,94780.28
2022-09-20T22:55:31.379Z,94781.44
2022-09-20T22:57:32.954Z,94782.88
2022-09-20T22:59:34.766Z,94776.97
2022-09-20T23:01:47.081Z,94785.19
2022-09-20T23:03:54.101Z,94783.53
2022-09-20T23:05:55.774Z,94784.69
2022-09-20T23:07:57.321Z,94778.13
2022-09-20T23:09:58.935Z,94778.63
2022-09-20T23:12:00.655Z,94782.72
2022-09-20T23:14:05.126Z,94776.66
2022-09-20T23:16:11.340Z,94775.19
2022-09-20T23:18:12.960Z,94780.41
2022-09-20T23:20:14.753Z,94782.56
2022-09-20T23:22:16.347Z,94784.84
2022-09-20T23:24:17.992Z,94779.25
2022-09-20T23:26:20.385Z,94775.50
2022-09-20T23:28:28.257Z,94776.16
2022-09-20T23:30:32.028Z,94777.97
2022-09-20T23:32:33.553Z,94770.59
2022-09-20T23:34:35.124Z,94779.78
2022-09-20T23:36:39.174Z,94768.44
2022-09-20T23:38:41.180Z,94769.94
2022-09-20T23:40:42.744Z,94769.63
2022-09-20T23:42:44.433Z,94771.28
2022-09-20T23:44:46.285Z,94772.41
2022-09-20T23:46:47.839Z,94771.28
2022-09-20T23:48:51.015Z,94768.81
2022-09-20T23:50:52.840Z,94770.78
2022-09-20T23:52:54.432Z,94771.06
2022-09-20T23:54:56.044Z,94769.78
2022-09-20T23:56:57.652Z,94772.72
2022-09-20T23:58:59.300Z,94775.03
